E.r.pusan — D5OQ8 — position and weather

sailwx.info

Track history (hours):
 
Tides and Currents Weather Stations Pressure Air Temp Water Temp Dewpoint Dewpoint Depression Visibility Wind Speed Wind Dir Waves Ship Positions

E.r.pusan

Last reported at 2018-Jul-15 21:09 UTC. Time now 2018-Jul-16 02:36 UTC.
Position N 36°01' W 005°05'.

Length 277 m; draft 13.5 m.

Type: Ship (hazmat cat D). MMSI: 636018212.

Date/timePositionNaut miles runAvg speedWind from/ knotsBaromVisibWave heightAir tempDewpointWater temp
2018-Jul-15 21:09N 36°01' W 005°05'318.5
2018-Jul-15 21:00N 36°00' W 005°09'1019.8
2018-Jul-15 20:30N 35°59' W 005°21'4216.7
2018-Jul-15 18:00N 35°54' W 006°12'17714.7 290 / 121021.110.8 22.1
2018-Jul-15 06:00N 37°00' W 009°36'5915.8 270 / 121020.6 5.4 19.0
2018-Jul-15 02:14N 37°57' W 009°56'814.4
2018-Jul-15 01:42N 38°05' W 009°56'314.8
2018-Jul-15 01:30N 38°08' W 009°56'914.9
2018-Jul-15 00:53N 38°17' W 009°59'614.8
2018-Jul-15 00:30N 38°22' W 010°01'814.9
2018-Jul-15 00:00N 38°30' W 010°02'714.7
2018-Jul-14 23:30N 38°37' W 010°04'815.6
2018-Jul-14 22:59N 38°45' W 010°05'715.1
2018-Jul-14 22:29N 38°52' W 010°06'715.1
2018-Jul-14 22:00N 38°60' W 010°06'815.5
2018-Jul-14 21:30N 39°07' W 010°06'815.1
2018-Jul-14 21:00N 39°15' W 010°05'814.9
2018-Jul-14 20:30N 39°22' W 010°05'914.6
2018-Jul-14 19:54N 39°31' W 010°05'20314.6
2018-Jul-14 06:00N 42°54' W 010°00'24215.0 140 / 91017.8 0.1 16.5
2018-Jul-13 13:49N 46°34' W 007°38'4214.9
2018-Jul-13 10:58N 47°12' W 007°09'5415.9
2018-Jul-13 07:33N 48°00' W 006°33'2314.4
2018-Jul-13 06:00N 48°18' W 006°12'1023.9 040 / 111023.1 5.4 16.1
2018-Jul-13 05:33N 48°28' W 006°12'2314.4
2018-Jul-13 03:58N 48°48' W 005°55'613.8
2018-Jul-13 03:31N 48°54' W 005°50'1013.1
2018-Jul-13 02:45N 48°60' W 005°38'1514.0
2018-Jul-13 01:39N 49°07' W 005°17'314.4
2018-Jul-13 01:28N 49°08' W 005°13'814.7
2018-Jul-13 00:56N 49°12' W 005°03'2215.5
2018-Jul-12 23:33N 49°23' W 004°34'1816.4
2018-Jul-12 22:27N 49°30' W 004°09'716.3
2018-Jul-12 22:01N 49°34' W 003°60'815.7
2018-Jul-12 21:30N 49°38' W 003°49'815.1
2018-Jul-12 20:58N 49°42' W 003°38'714.6
2018-Jul-12 20:28N 49°46' W 003°29'613.9
2018-Jul-12 20:01N 49°49' W 003°20'713.2
2018-Jul-12 19:30N 49°52' W 003°11'612.8
2018-Jul-12 19:00N 49°55' W 003°02'612.5
2018-Jul-12 18:31N 49°58' W 002°53'612.5
2018-Jul-12 18:00N 49°59' W 002°44'5386.1
2018-Jul-12 18:00N 49°54' W 002°42'917.1 150 / 71022.0 5.4
2018-Jul-12 17:29N 50°01' W 002°34'612.9
2018-Jul-12 17:01N 50°02' W 002°25'713.5
2018-Jul-12 16:30N 50°02' W 002°14'1414.8
2018-Jul-12 15:34N 49°59' W 001°53'115.4
2018-Jul-12 15:30N 49°59' W 001°52'816.0
2018-Jul-12 14:59N 49°54' W 001°41'817.1
2018-Jul-12 14:30N 49°52' W 001°29'2617.8
2018-Jul-12 13:01N 49°43' W 000°50'016.7
2018-Jul-12 13:00N 49°43' W 000°50'817.0
2018-Jul-12 12:30N 49°40' W 000°38'816.3
2018-Jul-12 12:00N 49°37' W 000°26'815.4
2018-Jul-12 11:30N 49°34' W 000°15'713.4
2018-Jul-12 11:00N 49°32' W 000°05'714.8
2018-Jul-12 10:31N 49°29' E 000°05'2 3.5
2018-Jul-12 09:58N 49°28' E 000°08'0 0.0
2018-Jul-12 09:28N 49°28' E 000°08'0 0.0
2018-Jul-12 08:58N 49°28' E 000°08'0 0.0
2018-Jul-12 08:28N 49°28' E 000°08'0 0.0
2018-Jul-12 07:58N 49°28' E 000°08'0 0.0
2018-Jul-12 07:28N 49°28' E 000°08'0 0.0
2018-Jul-12 06:58N 49°28' E 000°08'0 0.0
2018-Jul-12 06:28N 49°28' E 000°08'0 0.0
2018-Jul-12 05:58N 49°28' E 000°08'0 0.0
2018-Jul-12 05:28N 49°28' E 000°08'0 0.0
2018-Jul-12 04:58N 49°28' E 000°08'0 0.0
2018-Jul-12 04:28N 49°28' E 000°08'0 0.0
2018-Jul-12 03:58N 49°28' E 000°08'0 0.0
2018-Jul-12 03:28N 49°28' E 000°08'0 0.0
2018-Jul-12 02:58N 49°28' E 000°08'0 0.0
2018-Jul-12 02:28N 49°28' E 000°08'0 0.0
2018-Jul-12 01:58N 49°28' E 000°08'0 0.0
2018-Jul-12 01:28N 49°28' E 000°08'0 0.0
2018-Jul-12 00:58N 49°28' E 000°08'0 0.0
2018-Jul-12 00:28N 49°28' E 000°08'0 0.1
2018-Jul-11 23:58N 49°28' E 000°08'0 0.1
2018-Jul-11 23:28N 49°28' E 000°08'0 0.0
2018-Jul-11 22:58N 49°28' E 000°08'0 0.0
2018-Jul-11 22:28N 49°28' E 000°08'0 0.0
2018-Jul-11 21:58N 49°28' E 000°08'0 0.0
2018-Jul-11 21:28N 49°28' E 000°08'0 0.2
2018-Jul-11 20:58N 49°28' E 000°08'0 0.2
2018-Jul-11 20:28N 49°28' E 000°08'0 0.0
2018-Jul-11 19:58N 49°28' E 000°08'0 0.0
2018-Jul-11 19:28N 49°28' E 000°08'0 0.0
2018-Jul-11 18:58N 49°28' E 000°08'0 0.0
2018-Jul-11 18:28N 49°28' E 000°08'0 0.0
2018-Jul-11 17:58N 49°28' E 000°08'0 0.0
2018-Jul-11 17:25N 49°28' E 000°08'0 0.0
2018-Jul-11 16:58N 49°28' E 000°08'0 0.0
2018-Jul-11 16:28N 49°28' E 000°08'0 0.0
2018-Jul-11 15:58N 49°28' E 000°08'0 0.0
2018-Jul-11 15:28N 49°28' E 000°08'0 0.0
2018-Jul-11 14:58N 49°28' E 000°08'0 0.0
2018-Jul-11 14:28N 49°28' E 000°08'0 0.0
2018-Jul-11 13:58N 49°28' E 000°08'0 0.0
2018-Jul-11 13:28N 49°28' E 000°08'0 0.0
2018-Jul-11 12:58N 49°28' E 000°08'0 0.0
2018-Jul-11 12:28N 49°28' E 000°08'0 0.0
2018-Jul-11 12:00N 49°28' E 000°08'1 1.4
2018-Jul-11 11:30N 49°27' E 000°09'2 3.4
2018-Jul-11 11:00N 49°28' E 000°06'510.3
2018-Jul-11 10:30N 49°30' W 000°01'5 9.7
2018-Jul-11 10:01N 49°33' W 000°07'2 4.3
2018-Jul-11 09:30N 49°35' W 000°07'5 9.6
2018-Jul-11 09:00N 49°40' W 000°08'0 0.6
2018-Jul-11 08:30N 49°39' W 000°09'0 0.8
2018-Jul-11 08:00N 49°39' W 000°09'1 1.4
2018-Jul-11 07:30N 49°39' W 000°10'2 4.0
2018-Jul-11 07:00N 49°41' W 000°11'612.0
2018-Jul-11 06:30N 49°47' W 000°11'612.5
2018-Jul-11 06:00N 49°53' W 000°11'713.0
2018-Jul-11 05:30N 49°59' W 000°12'713.4
2018-Jul-11 05:00N 50°06' W 000°13'713.3
2018-Jul-11 04:30N 50°13' W 000°13'1412.8
2018-Jul-11 03:23N 50°26' W 000°05'513.5
2018-Jul-11 02:59N 50°28' E 000°02'1014.3
2018-Jul-11 02:18N 50°31' E 000°17'414.6
2018-Jul-11 02:00N 50°32' E 000°24'714.3
2018-Jul-11 01:31N 50°34' E 000°35'714.0
2018-Jul-11 01:00N 50°38' E 000°44'713.7
2018-Jul-11 00:30N 50°42' E 000°52'713.1
2018-Jul-11 00:00N 50°46' E 001°01'612.8
2018-Jul-10 23:30N 50°50' E 001°09'612.2
2018-Jul-10 23:00N 50°53' E 001°17'611.3
2018-Jul-10 22:30N 50°58' E 001°22'611.1
2018-Jul-10 22:00N 51°02' E 001°28'611.1
2018-Jul-10 21:30N 51°06' E 001°34'611.3
2018-Jul-10 21:00N 51°10' E 001°41'611.9
2018-Jul-10 20:30N 51°14' E 001°47'612.8
2018-Jul-10 20:00N 51°20' E 001°52'713.2
2018-Jul-10 19:30N 51°25' E 001°59'611.2
2018-Jul-10 19:00N 51°24' E 002°08'611.9
2018-Jul-10 18:30N 51°21' E 002°16'814.0
2018-Jul-10 17:58N 51°23' E 002°28'814.1
2018-Jul-10 17:22N 51°22' E 002°42'3 8.8
2018-Jul-10 17:00N 51°24' E 002°46'815.0
2018-Jul-10 16:30N 51°25' E 002°58'816.4
2018-Jul-10 16:00N 51°24' E 003°11'917.4
2018-Jul-10 15:30N 51°25' E 003°25'611.8
2018-Jul-10 15:00N 51°26' E 003°34'510.4
2018-Jul-10 14:30N 51°25' E 003°42'713.6
2018-Jul-10 14:00N 51°21' E 003°51'815.4
2018-Jul-10 13:31N 51°26' E 003°60'612.5
2018-Jul-10 13:00N 51°22' E 004°07'5 9.7
2018-Jul-10 12:30N 51°21' E 004°15'3 6.8
2018-Jul-10 12:00N 51°18' E 004°16'1 1.2
2018-Jul-10 11:30N 51°17' E 004°15'0 0.0
2018-Jul-10 11:00N 51°17' E 004°15'0 0.0
2018-Jul-10 10:27N 51°17' E 004°15'0 0.0
2018-Jul-10 10:00N 51°17' E 004°15'0 0.0
2018-Jul-10 09:30N 51°17' E 004°15'0 0.0
2018-Jul-10 09:00N 51°17' E 004°15'0 0.0
2018-Jul-10 08:30N 51°17' E 004°15'0 0.0
2018-Jul-10 07:57N 51°17' E 004°15'0 0.0
2018-Jul-10 07:30N 51°17' E 004°15'0 0.0
2018-Jul-10 06:57N 51°17' E 004°15'0 0.1
2018-Jul-10 06:30N 51°17' E 004°15'0 0.0
2018-Jul-10 06:00N 51°17' E 004°15'0 0.0
2018-Jul-10 05:30N 51°17' E 004°15'0 0.0
2018-Jul-10 05:00N 51°17' E 004°15'0 0.0
2018-Jul-10 04:30N 51°17' E 004°15'0 0.1
2018-Jul-10 04:00N 51°17' E 004°16'0 0.0
2018-Jul-10 03:30N 51°17' E 004°15'0 0.0
2018-Jul-10 03:00N 51°17' E 004°15'0 0.0
2018-Jul-10 02:30N 51°17' E 004°15'0 0.0
2018-Jul-10 02:00N 51°17' E 004°15'0 0.0
2018-Jul-10 01:30N 51°17' E 004°15'0 0.0
2018-Jul-10 01:00N 51°17' E 004°15'0 0.1
2018-Jul-10 00:30N 51°17' E 004°16'0 0.1
2018-Jul-10 00:00N 51°17' E 004°15'0 0.0
2018-Jul-09 23:30N 51°17' E 004°15'0 0.0
2018-Jul-09 22:57N 51°17' E 004°15'0 0.0
2018-Jul-09 22:30N 51°17' E 004°15'0 0.0
2018-Jul-09 22:00N 51°17' E 004°15'0 0.0
2018-Jul-09 21:30N 51°17' E 004°15'0 0.0
2018-Jul-09 21:00N 51°17' E 004°15'0 0.0
2018-Jul-09 20:30N 51°17' E 004°15'0 0.0
2018-Jul-09 20:00N 51°17' E 004°15'0 0.0
2018-Jul-09 19:30N 51°17' E 004°15'0 0.0
2018-Jul-09 19:00N 51°17' E 004°15'0 0.0
2018-Jul-09 18:30N 51°17' E 004°15'0 0.0
2018-Jul-09 17:54N 51°17' E 004°15'0 0.1
2018-Jul-09 17:30N 51°17' E 004°15'0 0.0
2018-Jul-09 17:00N 51°17' E 004°15'0 0.0
2018-Jul-09 16:30N 51°17' E 004°15'0 0.0
2018-Jul-09 16:00N 51°17' E 004°15'0 0.0
2018-Jul-09 15:30N 51°17' E 004°15'0 0.0
2018-Jul-09 15:00N 51°17' E 004°15'0 0.0
2018-Jul-09 14:30N 51°17' E 004°15'1 2.3
2018-Jul-09 14:01N 51°18' E 004°16'2 4.3
2018-Jul-09 13:31N 51°20' E 004°16'5 9.2
2018-Jul-09 13:00N 51°24' E 004°11'510.6
2018-Jul-09 12:30N 51°22' E 004°03'4 8.2
2018-Jul-09 12:00N 51°25' E 003°58'510.1
2018-Jul-09 11:31N 51°21' E 003°53'612.7
2018-Jul-09 11:00N 51°23' E 003°43'510.5
2018-Jul-09 10:30N 51°26' E 003°36'714.2
2018-Jul-09 10:00N 51°25' E 003°24'1020.6
2018-Jul-09 09:30N 51°24' E 003°08'611.6
2018-Jul-09 09:00N 51°28' E 003°01'918.7
2018-Jul-09 08:30N 51°36' E 003°10'816.6
2018-Jul-09 08:00N 51°44' E 003°14'4 7.4
2018-Jul-09 07:29N 51°47' E 003°16'511.4
2018-Jul-09 07:00N 51°53' E 003°18'816.4
2018-Jul-09 06:30N 52°01' E 003°19'1019.2
2018-Jul-09 06:00N 52°10' E 003°22'1121.7
2018-Jul-09 05:30N 52°21' E 003°25'1121.9
2018-Jul-09 05:00N 52°32' E 003°28'1121.1
2018-Jul-09 04:30N 52°41' E 003°37'1121.8
2018-Jul-09 04:00N 52°49' E 003°49'1121.4
2018-Jul-09 03:29N 52°58' E 004°01'1020.9
2018-Jul-09 03:00N 53°04' E 004°13'1020.3
2018-Jul-09 02:30N 53°11' E 004°25'1020.1
2018-Jul-09 02:00N 53°21' E 004°31'1019.2
2018-Jul-09 01:30N 53°29' E 004°40'1019.7
2018-Jul-09 01:00N 53°33' E 004°54'1019.7
2018-Jul-09 00:30N 53°36' E 005°10'1020.2
2018-Jul-09 00:00N 53°40' E 005°26'1120.7
2018-Jul-08 23:30N 53°43' E 005°43'7621.5
2018-Jul-08 19:57N 54°02' E 007°48'919.8
2018-Jul-08 19:30N 54°01' E 008°03'816.1
2018-Jul-08 19:00N 53°60' E 008°17'917.6
2018-Jul-08 18:28N 53°58' E 008°33'714.1
2018-Jul-08 17:59N 53°54' E 008°42'611.9
2018-Jul-08 17:30N 53°50' E 008°49'713.2
2018-Jul-08 17:00N 53°51' E 009°00'611.7
2018-Jul-08 16:30N 53°53' E 009°10'611.3
2018-Jul-08 16:01N 53°51' E 009°19'815.0
2018-Jul-08 15:30N 53°45' E 009°25'713.7
2018-Jul-08 15:00N 53°39' E 009°31'713.6
2018-Jul-08 14:30N 53°34' E 009°40'611.1
2018-Jul-08 14:00N 53°33' E 009°49'4 7.4
2018-Jul-08 13:30N 53°32' E 009°55'0 0.6
2018-Jul-08 12:59N 53°32' E 009°55'0 0.1
2018-Jul-08 12:29N 53°32' E 009°55'0 0.0
2018-Jul-08 11:59N 53°32' E 009°55'0 0.0
2018-Jul-08 11:29N 53°32' E 009°55'0 0.0
2018-Jul-08 10:59N 53°32' E 009°55'0 0.1
2018-Jul-08 10:29N 53°32' E 009°55'0 0.1
2018-Jul-08 09:59N 53°32' E 009°55'0 0.1
2018-Jul-08 09:29N 53°32' E 009°55'0 0.0
2018-Jul-08 08:59N 53°32' E 009°55'0 0.0
2018-Jul-08 08:29N 53°32' E 009°55'0 0.0
2018-Jul-08 07:59N 53°32' E 009°55'0 0.0
2018-Jul-08 07:26N 53°32' E 009°55'0 0.0
2018-Jul-08 06:59N 53°32' E 009°55'0 0.0
2018-Jul-08 06:29N 53°32' E 009°55'0 0.0
2018-Jul-08 05:59N 53°32' E 009°55'0 0.0
2018-Jul-08 05:29N 53°32' E 009°55'0 0.0
2018-Jul-08 04:59N 53°32' E 009°55'0 0.0
2018-Jul-08 04:29N 53°32' E 009°55'0 0.0
2018-Jul-08 03:59N 53°32' E 009°55'0 0.0
2018-Jul-08 03:29N 53°32' E 009°55'0 0.0
2018-Jul-08 02:59N 53°32' E 009°55'0 0.0
2018-Jul-08 02:29N 53°32' E 009°55'0 0.0
2018-Jul-08 01:59N 53°32' E 009°55'0 0.0
2018-Jul-08 01:29N 53°32' E 009°55'0 0.1
2018-Jul-08 00:59N 53°32' E 009°55'0 0.0
2018-Jul-08 00:29N 53°32' E 009°55'0 0.0
2018-Jul-07 23:59N 53°32' E 009°55'0 0.0
2018-Jul-07 23:29N 53°32' E 009°55'0 0.0
2018-Jul-07 22:59N 53°32' E 009°55'0 0.0
2018-Jul-07 22:29N 53°32' E 009°55'0 0.1
2018-Jul-07 21:59N 53°32' E 009°55'0 0.1
2018-Jul-07 21:29N 53°32' E 009°55'0 0.0
2018-Jul-07 20:59N 53°32' E 009°55'0 0.0
2018-Jul-07 20:29N 53°32' E 009°55'0 0.0
2018-Jul-07 19:59N 53°32' E 009°55'0 0.0
2018-Jul-07 19:29N 53°32' E 009°55'0 0.0
2018-Jul-07 18:59N 53°32' E 009°55'0 0.0
2018-Jul-07 18:29N 53°32' E 009°55'0 0.0
2018-Jul-07 17:59N 53°32' E 009°55'0 0.0
2018-Jul-07 17:29N 53°32' E 009°55'0 0.0
2018-Jul-07 16:59N 53°32' E 009°55'0 0.0
2018-Jul-07 16:29N 53°32' E 009°55'0 0.0
2018-Jul-07 15:59N 53°32' E 009°55'0 0.0
2018-Jul-07 15:26N 53°32' E 009°55'0 0.0
2018-Jul-07 14:59N 53°32' E 009°55'0 0.0
2018-Jul-07 14:29N 53°32' E 009°55'0 0.0
2018-Jul-07 13:59N 53°32' E 009°55'0 0.0
2018-Jul-07 13:29N 53°32' E 009°55'0 0.0
2018-Jul-07 12:59N 53°32' E 009°55'0 0.0
2018-Jul-07 12:29N 53°32' E 009°55'0 0.0
2018-Jul-07 11:59N 53°32' E 009°55'0 0.0
2018-Jul-07 11:29N 53°32' E 009°55'0 0.0
2018-Jul-07 10:59N 53°32' E 009°55'0 0.0
2018-Jul-07 10:29N 53°32' E 009°55'0 0.0
2018-Jul-07 10:00N 53°32' E 009°55'1 1.5
2018-Jul-07 09:31N 53°32' E 009°54'3 6.9
2018-Jul-07 09:01N 53°33' E 009°49'510.9
2018-Jul-07 08:31N 53°34' E 009°40'713.3
2018-Jul-07 08:00N 53°39' E 009°31'612.9
2018-Jul-07 07:31N 53°44' E 009°26'714.8
2018-Jul-07 07:00N 53°51' E 009°20'714.5
2018-Jul-07 06:30N 53°53' E 009°08'815.2
2018-Jul-07 06:00N 53°51' E 008°56'714.1
2018-Jul-07 05:30N 53°52' E 008°44'816.2
2018-Jul-07 05:00N 53°58' E 008°35'918.2
2018-Jul-07 04:30N 53°59' E 008°19'712.8
2018-Jul-07 03:59N 53°59' E 008°08'4 9.4
2018-Jul-07 03:30N 53°59' E 008°01'3819.7
2018-Jul-07 01:36N 53°50' E 006°58'221.0
2018-Jul-07 01:30N 53°50' E 006°55'1120.7
2018-Jul-07 00:59N 53°47' E 006°37'1520.5
2018-Jul-07 00:15N 53°44' E 006°12'520.4
2018-Jul-07 00:00N 53°43' E 006°04'1020.2
2018-Jul-06 23:30N 53°39' E 005°48'1020.3
2018-Jul-06 23:00N 53°36' E 005°32'1120.5
2018-Jul-06 22:27N 53°32' E 005°14'920.4
2018-Jul-06 22:00N 53°29' E 004°59'1020.3
2018-Jul-06 21:31N 53°24' E 004°45'1020.1
2018-Jul-06 21:00N 53°16' E 004°35'1020.7
2018-Jul-06 20:30N 53°07' E 004°26'1020.5
2018-Jul-06 20:00N 52°58' E 004°18'1020.6
2018-Jul-06 19:30N 52°49' E 004°10'1021.0
2018-Jul-06 19:00N 52°39' E 004°03'1020.7
2018-Jul-06 18:30N 52°30' E 003°55'1020.8
2018-Jul-06 18:01N 52°20' E 003°52'1019.8
2018-Jul-06 17:30N 52°10' E 003°54'816.1
2018-Jul-06 17:00N 52°03' E 003°57'510.2
2018-Jul-06 16:30N 51°59' E 004°03'2 3.5
2018-Jul-06 16:00N 51°58' E 004°04'0 0.2
2018-Jul-06 15:29N 51°58' E 004°04'0 0.0
2018-Jul-06 14:56N 51°58' E 004°04'0 0.0
2018-Jul-06 14:29N 51°58' E 004°04'0 0.0
2018-Jul-06 13:59N 51°58' E 004°04'0 0.0
2018-Jul-06 13:29N 51°58' E 004°04'0 0.0
2018-Jul-06 12:59N 51°58' E 004°04'0 0.0
2018-Jul-06 12:29N 51°58' E 004°04'0 0.0
2018-Jul-06 11:59N 51°58' E 004°04'0 0.0
2018-Jul-06 11:29N 51°58' E 004°04'0 0.0
2018-Jul-06 10:59N 51°58' E 004°04'0 0.0
2018-Jul-06 10:29N 51°58' E 004°04'0 0.0
2018-Jul-06 09:59N 51°58' E 004°04'0 0.0
2018-Jul-06 09:29N 51°58' E 004°04'0 0.0
2018-Jul-06 08:59N 51°58' E 004°04'0 0.0
2018-Jul-06 08:29N 51°58' E 004°04'0 0.0
2018-Jul-06 07:59N 51°58' E 004°04'0 0.0
2018-Jul-06 07:29N 51°58' E 004°04'0 0.0
2018-Jul-06 06:59N 51°58' E 004°04'0 0.0
2018-Jul-06 06:29N 51°58' E 004°04'0 0.0
2018-Jul-06 05:59N 51°58' E 004°04'0 0.0
2018-Jul-06 05:29N 51°58' E 004°04'0 0.0
2018-Jul-06 04:59N 51°58' E 004°04'0 0.0
2018-Jul-06 04:29N 51°58' E 004°04'0 0.0
2018-Jul-06 03:59N 51°58' E 004°04'0 0.0
2018-Jul-06 03:29N 51°58' E 004°04'0 0.0
2018-Jul-06 02:59N 51°58' E 004°04'0 0.0
2018-Jul-06 02:29N 51°58' E 004°04'0 0.0
2018-Jul-06 01:59N 51°58' E 004°04'0 0.0
2018-Jul-06 01:29N 51°58' E 004°04'0 0.0
2018-Jul-06 00:56N 51°58' E 004°04'0 0.0
2018-Jul-06 00:26N 51°58' E 004°04'0 0.0
2018-Jul-05 23:59N 51°58' E 004°04'0 0.0
2018-Jul-05 23:29N 51°58' E 004°04'0 0.0
2018-Jul-05 22:59N 51°58' E 004°04'0 0.0
2018-Jul-05 22:29N 51°58' E 004°04'0 0.0
2018-Jul-05 21:59N 51°58' E 004°04'0 0.0
2018-Jul-05 21:29N 51°58' E 004°04'  
Track history (hours):
 
Tides and Currents Weather Stations Pressure Air Temp Water Temp Dewpoint Dewpoint Depression Visibility Wind Speed Wind Dir Waves Ship Positions

E.r.pusan

Last reported at 2018-Jul-15 21:09 UTC. Time now 2018-Jul-16 02:36 UTC.
Position N 36°01' W 005°05'.

Length 277 m; draft 13.5 m.

Type: Ship (hazmat cat D). MMSI: 636018212.

Date/timePositionNaut miles runAvg speedWind from/ knotsBaromVisibWave heightAir tempDewpointWater temp
2018-Jul-15 21:09N 36°01' W 005°05'318.5
2018-Jul-15 21:00N 36°00' W 005°09'1019.8
2018-Jul-15 20:30N 35°59' W 005°21'4216.7
2018-Jul-15 18:00N 35°54' W 006°12'17714.7 290 / 121021.110.8 22.1
2018-Jul-15 06:00N 37°00' W 009°36'5915.8 270 / 121020.6 5.4 19.0
2018-Jul-15 02:14N 37°57' W 009°56'814.4
2018-Jul-15 01:42N 38°05' W 009°56'314.8
2018-Jul-15 01:30N 38°08' W 009°56'914.9
2018-Jul-15 00:53N 38°17' W 009°59'614.8
2018-Jul-15 00:30N 38°22' W 010°01'814.9
2018-Jul-15 00:00N 38°30' W 010°02'714.7
2018-Jul-14 23:30N 38°37' W 010°04'815.6
2018-Jul-14 22:59N 38°45' W 010°05'715.1
2018-Jul-14 22:29N 38°52' W 010°06'715.1
2018-Jul-14 22:00N 38°60' W 010°06'815.5
2018-Jul-14 21:30N 39°07' W 010°06'815.1
2018-Jul-14 21:00N 39°15' W 010°05'814.9
2018-Jul-14 20:30N 39°22' W 010°05'914.6
2018-Jul-14 19:54N 39°31' W 010°05'20314.6
2018-Jul-14 06:00N 42°54' W 010°00'24215.0 140 / 91017.8 0.1 16.5
2018-Jul-13 13:49N 46°34' W 007°38'4214.9
2018-Jul-13 10:58N 47°12' W 007°09'5415.9
2018-Jul-13 07:33N 48°00' W 006°33'2314.4
2018-Jul-13 06:00N 48°18' W 006°12'1023.9 040 / 111023.1 5.4 16.1
2018-Jul-13 05:33N 48°28' W 006°12'2314.4
2018-Jul-13 03:58N 48°48' W 005°55'613.8
2018-Jul-13 03:31N 48°54' W 005°50'1013.1
2018-Jul-13 02:45N 48°60' W 005°38'1514.0
2018-Jul-13 01:39N 49°07' W 005°17'314.4
2018-Jul-13 01:28N 49°08' W 005°13'814.7
2018-Jul-13 00:56N 49°12' W 005°03'2215.5
2018-Jul-12 23:33N 49°23' W 004°34'1816.4
2018-Jul-12 22:27N 49°30' W 004°09'716.3
2018-Jul-12 22:01N 49°34' W 003°60'815.7
2018-Jul-12 21:30N 49°38' W 003°49'815.1
2018-Jul-12 20:58N 49°42' W 003°38'714.6
2018-Jul-12 20:28N 49°46' W 003°29'613.9
2018-Jul-12 20:01N 49°49' W 003°20'713.2
2018-Jul-12 19:30N 49°52' W 003°11'612.8
2018-Jul-12 19:00N 49°55' W 003°02'612.5
2018-Jul-12 18:31N 49°58' W 002°53'612.5
2018-Jul-12 18:00N 49°59' W 002°44'5386.1
2018-Jul-12 18:00N 49°54' W 002°42'917.1 150 / 71022.0 5.4
2018-Jul-12 17:29N 50°01' W 002°34'612.9
2018-Jul-12 17:01N 50°02' W 002°25'713.5
2018-Jul-12 16:30N 50°02' W 002°14'1414.8
2018-Jul-12 15:34N 49°59' W 001°53'115.4
2018-Jul-12 15:30N 49°59' W 001°52'816.0
2018-Jul-12 14:59N 49°54' W 001°41'817.1
2018-Jul-12 14:30N 49°52' W 001°29'2617.8
2018-Jul-12 13:01N 49°43' W 000°50'016.7
2018-Jul-12 13:00N 49°43' W 000°50'817.0
2018-Jul-12 12:30N 49°40' W 000°38'816.3
2018-Jul-12 12:00N 49°37' W 000°26'815.4
2018-Jul-12 11:30N 49°34' W 000°15'713.4
2018-Jul-12 11:00N 49°32' W 000°05'714.8
2018-Jul-12 10:31N 49°29' E 000°05'2 3.5
2018-Jul-12 09:58N 49°28' E 000°08'0 0.0
2018-Jul-12 09:28N 49°28' E 000°08'0 0.0
2018-Jul-12 08:58N 49°28' E 000°08'0 0.0
2018-Jul-12 08:28N 49°28' E 000°08'0 0.0
2018-Jul-12 07:58N 49°28' E 000°08'0 0.0
2018-Jul-12 07:28N 49°28' E 000°08'0 0.0
2018-Jul-12 06:58N 49°28' E 000°08'0 0.0
2018-Jul-12 06:28N 49°28' E 000°08'0 0.0
2018-Jul-12 05:58N 49°28' E 000°08'0 0.0
2018-Jul-12 05:28N 49°28' E 000°08'0 0.0
2018-Jul-12 04:58N 49°28' E 000°08'0 0.0
2018-Jul-12 04:28N 49°28' E 000°08'0 0.0
2018-Jul-12 03:58N 49°28' E 000°08'0 0.0
2018-Jul-12 03:28N 49°28' E 000°08'0 0.0
2018-Jul-12 02:58N 49°28' E 000°08'0 0.0
2018-Jul-12 02:28N 49°28' E 000°08'0 0.0
2018-Jul-12 01:58N 49°28' E 000°08'0 0.0
2018-Jul-12 01:28N 49°28' E 000°08'0 0.0
2018-Jul-12 00:58N 49°28' E 000°08'0 0.0
2018-Jul-12 00:28N 49°28' E 000°08'0 0.1
2018-Jul-11 23:58N 49°28' E 000°08'0 0.1
2018-Jul-11 23:28N 49°28' E 000°08'0 0.0
2018-Jul-11 22:58N 49°28' E 000°08'0 0.0
2018-Jul-11 22:28N 49°28' E 000°08'0 0.0
2018-Jul-11 21:58N 49°28' E 000°08'0 0.0
2018-Jul-11 21:28N 49°28' E 000°08'0 0.2
2018-Jul-11 20:58N 49°28' E 000°08'0 0.2
2018-Jul-11 20:28N 49°28' E 000°08'0 0.0
2018-Jul-11 19:58N 49°28' E 000°08'0 0.0
2018-Jul-11 19:28N 49°28' E 000°08'0 0.0
2018-Jul-11 18:58N 49°28' E 000°08'0 0.0
2018-Jul-11 18:28N 49°28' E 000°08'0 0.0
2018-Jul-11 17:58N 49°28' E 000°08'0 0.0
2018-Jul-11 17:25N 49°28' E 000°08'0 0.0
2018-Jul-11 16:58N 49°28' E 000°08'0 0.0
2018-Jul-11 16:28N 49°28' E 000°08'0 0.0
2018-Jul-11 15:58N 49°28' E 000°08'0 0.0
2018-Jul-11 15:28N 49°28' E 000°08'0 0.0
2018-Jul-11 14:58N 49°28' E 000°08'0 0.0
2018-Jul-11 14:28N 49°28' E 000°08'0 0.0
2018-Jul-11 13:58N 49°28' E 000°08'0 0.0
2018-Jul-11 13:28N 49°28' E 000°08'0 0.0
2018-Jul-11 12:58N 49°28' E 000°08'0 0.0
2018-Jul-11 12:28N 49°28' E 000°08'0 0.0
2018-Jul-11 12:00N 49°28' E 000°08'1 1.4
2018-Jul-11 11:30N 49°27' E 000°09'2 3.4
2018-Jul-11 11:00N 49°28' E 000°06'510.3
2018-Jul-11 10:30N 49°30' W 000°01'5 9.7
2018-Jul-11 10:01N 49°33' W 000°07'2 4.3
2018-Jul-11 09:30N 49°35' W 000°07'5 9.6
2018-Jul-11 09:00N 49°40' W 000°08'0 0.6
2018-Jul-11 08:30N 49°39' W 000°09'0 0.8
2018-Jul-11 08:00N 49°39' W 000°09'1 1.4
2018-Jul-11 07:30N 49°39' W 000°10'2 4.0
2018-Jul-11 07:00N 49°41' W 000°11'612.0
2018-Jul-11 06:30N 49°47' W 000°11'612.5
2018-Jul-11 06:00N 49°53' W 000°11'713.0
2018-Jul-11 05:30N 49°59' W 000°12'713.4
2018-Jul-11 05:00N 50°06' W 000°13'713.3
2018-Jul-11 04:30N 50°13' W 000°13'1412.8
2018-Jul-11 03:23N 50°26' W 000°05'513.5
2018-Jul-11 02:59N 50°28' E 000°02'1014.3
2018-Jul-11 02:18N 50°31' E 000°17'414.6
2018-Jul-11 02:00N 50°32' E 000°24'714.3
2018-Jul-11 01:31N 50°34' E 000°35'714.0
2018-Jul-11 01:00N 50°38' E 000°44'713.7
2018-Jul-11 00:30N 50°42' E 000°52'713.1
2018-Jul-11 00:00N 50°46' E 001°01'612.8
2018-Jul-10 23:30N 50°50' E 001°09'612.2
2018-Jul-10 23:00N 50°53' E 001°17'611.3
2018-Jul-10 22:30N 50°58' E 001°22'611.1
2018-Jul-10 22:00N 51°02' E 001°28'611.1
2018-Jul-10 21:30N 51°06' E 001°34'611.3
2018-Jul-10 21:00N 51°10' E 001°41'611.9
2018-Jul-10 20:30N 51°14' E 001°47'612.8
2018-Jul-10 20:00N 51°20' E 001°52'713.2
2018-Jul-10 19:30N 51°25' E 001°59'611.2
2018-Jul-10 19:00N 51°24' E 002°08'611.9
2018-Jul-10 18:30N 51°21' E 002°16'814.0
2018-Jul-10 17:58N 51°23' E 002°28'814.1
2018-Jul-10 17:22N 51°22' E 002°42'3 8.8
2018-Jul-10 17:00N 51°24' E 002°46'815.0
2018-Jul-10 16:30N 51°25' E 002°58'816.4
2018-Jul-10 16:00N 51°24' E 003°11'917.4
2018-Jul-10 15:30N 51°25' E 003°25'611.8
2018-Jul-10 15:00N 51°26' E 003°34'510.4
2018-Jul-10 14:30N 51°25' E 003°42'713.6
2018-Jul-10 14:00N 51°21' E 003°51'815.4
2018-Jul-10 13:31N 51°26' E 003°60'612.5
2018-Jul-10 13:00N 51°22' E 004°07'5 9.7
2018-Jul-10 12:30N 51°21' E 004°15'3 6.8
2018-Jul-10 12:00N 51°18' E 004°16'1 1.2
2018-Jul-10 11:30N 51°17' E 004°15'0 0.0
2018-Jul-10 11:00N 51°17' E 004°15'0 0.0
2018-Jul-10 10:27N 51°17' E 004°15'0 0.0
2018-Jul-10 10:00N 51°17' E 004°15'0 0.0
2018-Jul-10 09:30N 51°17' E 004°15'0 0.0
2018-Jul-10 09:00N 51°17' E 004°15'0 0.0
2018-Jul-10 08:30N 51°17' E 004°15'0 0.0
2018-Jul-10 07:57N 51°17' E 004°15'0 0.0
2018-Jul-10 07:30N 51°17' E 004°15'0 0.0
2018-Jul-10 06:57N 51°17' E 004°15'0 0.1
2018-Jul-10 06:30N 51°17' E 004°15'0 0.0
2018-Jul-10 06:00N 51°17' E 004°15'0 0.0
2018-Jul-10 05:30N 51°17' E 004°15'0 0.0
2018-Jul-10 05:00N 51°17' E 004°15'0 0.0
2018-Jul-10 04:30N 51°17' E 004°15'0 0.1
2018-Jul-10 04:00N 51°17' E 004°16'0 0.0
2018-Jul-10 03:30N 51°17' E 004°15'0 0.0
2018-Jul-10 03:00N 51°17' E 004°15'0 0.0
2018-Jul-10 02:30N 51°17' E 004°15'0 0.0
2018-Jul-10 02:00N 51°17' E 004°15'0 0.0
2018-Jul-10 01:30N 51°17' E 004°15'0 0.0
2018-Jul-10 01:00N 51°17' E 004°15'0 0.1
2018-Jul-10 00:30N 51°17' E 004°16'0 0.1
2018-Jul-10 00:00N 51°17' E 004°15'0 0.0
2018-Jul-09 23:30N 51°17' E 004°15'0 0.0
2018-Jul-09 22:57N 51°17' E 004°15'0 0.0
2018-Jul-09 22:30N 51°17' E 004°15'0 0.0
2018-Jul-09 22:00N 51°17' E 004°15'0 0.0
2018-Jul-09 21:30N 51°17' E 004°15'0 0.0
2018-Jul-09 21:00N 51°17' E 004°15'0 0.0
2018-Jul-09 20:30N 51°17' E 004°15'0 0.0
2018-Jul-09 20:00N 51°17' E 004°15'0 0.0
2018-Jul-09 19:30N 51°17' E 004°15'0 0.0
2018-Jul-09 19:00N 51°17' E 004°15'0 0.0
2018-Jul-09 18:30N 51°17' E 004°15'0 0.0
2018-Jul-09 17:54N 51°17' E 004°15'0 0.1
2018-Jul-09 17:30N 51°17' E 004°15'0 0.0
2018-Jul-09 17:00N 51°17' E 004°15'0 0.0
2018-Jul-09 16:30N 51°17' E 004°15'0 0.0
2018-Jul-09 16:00N 51°17' E 004°15'0 0.0
2018-Jul-09 15:30N 51°17' E 004°15'0 0.0
2018-Jul-09 15:00N 51°17' E 004°15'0 0.0
2018-Jul-09 14:30N 51°17' E 004°15'1 2.3
2018-Jul-09 14:01N 51°18' E 004°16'2 4.3
2018-Jul-09 13:31N 51°20' E 004°16'5 9.2
2018-Jul-09 13:00N 51°24' E 004°11'510.6
2018-Jul-09 12:30N 51°22' E 004°03'4 8.2
2018-Jul-09 12:00N 51°25' E 003°58'510.1
2018-Jul-09 11:31N 51°21' E 003°53'612.7
2018-Jul-09 11:00N 51°23' E 003°43'510.5
2018-Jul-09 10:30N 51°26' E 003°36'714.2
2018-Jul-09 10:00N 51°25' E 003°24'1020.6
2018-Jul-09 09:30N 51°24' E 003°08'611.6
2018-Jul-09 09:00N 51°28' E 003°01'918.7
2018-Jul-09 08:30N 51°36' E 003°10'816.6
2018-Jul-09 08:00N 51°44' E 003°14'4 7.4
2018-Jul-09 07:29N 51°47' E 003°16'511.4
2018-Jul-09 07:00N 51°53' E 003°18'816.4
2018-Jul-09 06:30N 52°01' E 003°19'1019.2
2018-Jul-09 06:00N 52°10' E 003°22'1121.7
2018-Jul-09 05:30N 52°21' E 003°25'1121.9
2018-Jul-09 05:00N 52°32' E 003°28'1121.1
2018-Jul-09 04:30N 52°41' E 003°37'1121.8
2018-Jul-09 04:00N 52°49' E 003°49'1121.4
2018-Jul-09 03:29N 52°58' E 004°01'1020.9
2018-Jul-09 03:00N 53°04' E 004°13'1020.3
2018-Jul-09 02:30N 53°11' E 004°25'1020.1
2018-Jul-09 02:00N 53°21' E 004°31'1019.2
2018-Jul-09 01:30N 53°29' E 004°40'1019.7
2018-Jul-09 01:00N 53°33' E 004°54'1019.7
2018-Jul-09 00:30N 53°36' E 005°10'1020.2
2018-Jul-09 00:00N 53°40' E 005°26'1120.7
2018-Jul-08 23:30N 53°43' E 005°43'7621.5
2018-Jul-08 19:57N 54°02' E 007°48'919.8
2018-Jul-08 19:30N 54°01' E 008°03'816.1
2018-Jul-08 19:00N 53°60' E 008°17'917.6
2018-Jul-08 18:28N 53°58' E 008°33'714.1
2018-Jul-08 17:59N 53°54' E 008°42'611.9
2018-Jul-08 17:30N 53°50' E 008°49'713.2
2018-Jul-08 17:00N 53°51' E 009°00'611.7
2018-Jul-08 16:30N 53°53' E 009°10'611.3
2018-Jul-08 16:01N 53°51' E 009°19'815.0
2018-Jul-08 15:30N 53°45' E 009°25'713.7
2018-Jul-08 15:00N 53°39' E 009°31'713.6
2018-Jul-08 14:30N 53°34' E 009°40'611.1
2018-Jul-08 14:00N 53°33' E 009°49'4 7.4
2018-Jul-08 13:30N 53°32' E 009°55'0 0.6
2018-Jul-08 12:59N 53°32' E 009°55'0 0.1
2018-Jul-08 12:29N 53°32' E 009°55'0 0.0
2018-Jul-08 11:59N 53°32' E 009°55'0 0.0
2018-Jul-08 11:29N 53°32' E 009°55'0 0.0
2018-Jul-08 10:59N 53°32' E 009°55'0 0.1
2018-Jul-08 10:29N 53°32' E 009°55'0 0.1
2018-Jul-08 09:59N 53°32' E 009°55'0 0.1
2018-Jul-08 09:29N 53°32' E 009°55'0 0.0
2018-Jul-08 08:59N 53°32' E 009°55'0 0.0
2018-Jul-08 08:29N 53°32' E 009°55'0 0.0
2018-Jul-08 07:59N 53°32' E 009°55'0 0.0
2018-Jul-08 07:26N 53°32' E 009°55'0 0.0
2018-Jul-08 06:59N 53°32' E 009°55'0 0.0
2018-Jul-08 06:29N 53°32' E 009°55'0 0.0
2018-Jul-08 05:59N 53°32' E 009°55'0 0.0
2018-Jul-08 05:29N 53°32' E 009°55'0 0.0
2018-Jul-08 04:59N 53°32' E 009°55'0 0.0
2018-Jul-08 04:29N 53°32' E 009°55'0 0.0
2018-Jul-08 03:59N 53°32' E 009°55'0 0.0
2018-Jul-08 03:29N 53°32' E 009°55'0 0.0
2018-Jul-08 02:59N 53°32' E 009°55'0 0.0
2018-Jul-08 02:29N 53°32' E 009°55'0 0.0
2018-Jul-08 01:59N 53°32' E 009°55'0 0.0
2018-Jul-08 01:29N 53°32' E 009°55'0 0.1
2018-Jul-08 00:59N 53°32' E 009°55'0 0.0
2018-Jul-08 00:29N 53°32' E 009°55'0 0.0
2018-Jul-07 23:59N 53°32' E 009°55'0 0.0
2018-Jul-07 23:29N 53°32' E 009°55'0 0.0
2018-Jul-07 22:59N 53°32' E 009°55'0 0.0
2018-Jul-07 22:29N 53°32' E 009°55'0 0.1
2018-Jul-07 21:59N 53°32' E 009°55'0 0.1
2018-Jul-07 21:29N 53°32' E 009°55'0 0.0
2018-Jul-07 20:59N 53°32' E 009°55'0 0.0
2018-Jul-07 20:29N 53°32' E 009°55'0 0.0
2018-Jul-07 19:59N 53°32' E 009°55'0 0.0
2018-Jul-07 19:29N 53°32' E 009°55'0 0.0
2018-Jul-07 18:59N 53°32' E 009°55'0 0.0
2018-Jul-07 18:29N 53°32' E 009°55'0 0.0
2018-Jul-07 17:59N 53°32' E 009°55'0 0.0
2018-Jul-07 17:29N 53°32' E 009°55'0 0.0
2018-Jul-07 16:59N 53°32' E 009°55'0 0.0
2018-Jul-07 16:29N 53°32' E 009°55'0 0.0
2018-Jul-07 15:59N 53°32' E 009°55'0 0.0
2018-Jul-07 15:26N 53°32' E 009°55'0 0.0
2018-Jul-07 14:59N 53°32' E 009°55'0 0.0
2018-Jul-07 14:29N 53°32' E 009°55'0 0.0
2018-Jul-07 13:59N 53°32' E 009°55'0 0.0
2018-Jul-07 13:29N 53°32' E 009°55'0 0.0
2018-Jul-07 12:59N 53°32' E 009°55'0 0.0
2018-Jul-07 12:29N 53°32' E 009°55'0 0.0
2018-Jul-07 11:59N 53°32' E 009°55'0 0.0
2018-Jul-07 11:29N 53°32' E 009°55'0 0.0
2018-Jul-07 10:59N 53°32' E 009°55'0 0.0
2018-Jul-07 10:29N 53°32' E 009°55'0 0.0
2018-Jul-07 10:00N 53°32' E 009°55'1 1.5
2018-Jul-07 09:31N 53°32' E 009°54'3 6.9
2018-Jul-07 09:01N 53°33' E 009°49'510.9
2018-Jul-07 08:31N 53°34' E 009°40'713.3
2018-Jul-07 08:00N 53°39' E 009°31'612.9
2018-Jul-07 07:31N 53°44' E 009°26'714.8
2018-Jul-07 07:00N 53°51' E 009°20'714.5
2018-Jul-07 06:30N 53°53' E 009°08'815.2
2018-Jul-07 06:00N 53°51' E 008°56'714.1
2018-Jul-07 05:30N 53°52' E 008°44'816.2
2018-Jul-07 05:00N 53°58' E 008°35'918.2
2018-Jul-07 04:30N 53°59' E 008°19'712.8
2018-Jul-07 03:59N 53°59' E 008°08'4 9.4
2018-Jul-07 03:30N 53°59' E 008°01'3819.7
2018-Jul-07 01:36N 53°50' E 006°58'221.0
2018-Jul-07 01:30N 53°50' E 006°55'1120.7
2018-Jul-07 00:59N 53°47' E 006°37'1520.5
2018-Jul-07 00:15N 53°44' E 006°12'520.4
2018-Jul-07 00:00N 53°43' E 006°04'1020.2
2018-Jul-06 23:30N 53°39' E 005°48'1020.3
2018-Jul-06 23:00N 53°36' E 005°32'1120.5
2018-Jul-06 22:27N 53°32' E 005°14'920.4
2018-Jul-06 22:00N 53°29' E 004°59'1020.3
2018-Jul-06 21:31N 53°24' E 004°45'1020.1
2018-Jul-06 21:00N 53°16' E 004°35'1020.7
2018-Jul-06 20:30N 53°07' E 004°26'1020.5
2018-Jul-06 20:00N 52°58' E 004°18'1020.6
2018-Jul-06 19:30N 52°49' E 004°10'1021.0
2018-Jul-06 19:00N 52°39' E 004°03'1020.7
2018-Jul-06 18:30N 52°30' E 003°55'1020.8
2018-Jul-06 18:01N 52°20' E 003°52'1019.8
2018-Jul-06 17:30N 52°10' E 003°54'816.1
2018-Jul-06 17:00N 52°03' E 003°57'510.2
2018-Jul-06 16:30N 51°59' E 004°03'2 3.5
2018-Jul-06 16:00N 51°58' E 004°04'0 0.2
2018-Jul-06 15:29N 51°58' E 004°04'0 0.0
2018-Jul-06 14:56N 51°58' E 004°04'0 0.0
2018-Jul-06 14:29N 51°58' E 004°04'0 0.0
2018-Jul-06 13:59N 51°58' E 004°04'0 0.0
2018-Jul-06 13:29N 51°58' E 004°04'0 0.0
2018-Jul-06 12:59N 51°58' E 004°04'0 0.0
2018-Jul-06 12:29N 51°58' E 004°04'0 0.0
2018-Jul-06 11:59N 51°58' E 004°04'0 0.0
2018-Jul-06 11:29N 51°58' E 004°04'0 0.0
2018-Jul-06 10:59N 51°58' E 004°04'0 0.0
2018-Jul-06 10:29N 51°58' E 004°04'0 0.0
2018-Jul-06 09:59N 51°58' E 004°04'0 0.0
2018-Jul-06 09:29N 51°58' E 004°04'0 0.0
2018-Jul-06 08:59N 51°58' E 004°04'0 0.0
2018-Jul-06 08:29N 51°58' E 004°04'0 0.0
2018-Jul-06 07:59N 51°58' E 004°04'0 0.0
2018-Jul-06 07:29N 51°58' E 004°04'0 0.0
2018-Jul-06 06:59N 51°58' E 004°04'0 0.0
2018-Jul-06 06:29N 51°58' E 004°04'0 0.0
2018-Jul-06 05:59N 51°58' E 004°04'0 0.0
2018-Jul-06 05:29N 51°58' E 004°04'0 0.0
2018-Jul-06 04:59N 51°58' E 004°04'0 0.0
2018-Jul-06 04:29N 51°58' E 004°04'0 0.0
2018-Jul-06 03:59N 51°58' E 004°04'0 0.0
2018-Jul-06 03:29N 51°58' E 004°04'0 0.0
2018-Jul-06 02:59N 51°58' E 004°04'0 0.0
2018-Jul-06 02:29N 51°58' E 004°04'0 0.0
2018-Jul-06 01:59N 51°58' E 004°04'0 0.0
2018-Jul-06 01:29N 51°58' E 004°04'0 0.0
2018-Jul-06 00:56N 51°58' E 004°04'0 0.0
2018-Jul-06 00:26N 51°58' E 004°04'0 0.0
2018-Jul-05 23:59N 51°58' E 004°04'0 0.0
2018-Jul-05 23:29N 51°58' E 004°04'0 0.0
2018-Jul-05 22:59N 51°58' E 004°04'0 0.0
2018-Jul-05 22:29N 51°58' E 004°04'0 0.0
2018-Jul-05 21:59N 51°58' E 004°04'0 0.0
2018-Jul-05 21:29N 51°58' E 004°04'  

Dump ship's entire track history